Time;durP1;ratioP1;P1;durP2;ratioP2;P2;SDS_P1;SDS_P2;PMS_P1;PMS_P2;Temp;Humidity;BMP_temperature;BMP_pressure;BME280_temperature;BME280_humidity;BME280_pressure;Samples;Min_cycle;Max_cycle;Signal;HPM_P1;HPM_P2
2020/12/25 00:00:37;;;;;;;17.15;15.85;;;;;;;3.56;100.00;98042.09;2024511;29;20610;-78
2020/12/25 00:01:39;;;;;;;16.60;15.23;;;;;;;3.53;100.00;98047.91;2024895;29;20300;-78
2020/12/25 00:02:39;;;;;;;16.27;15.07;;;;;;;3.39;100.00;98021.41;2032296;29;20291;-77
2020/12/25 00:03:42;;;;;;;16.43;15.17;;;;;;;3.51;100.00;98055.31;2032920;29;20363;-80
2020/12/25 00:04:43;;;;;;;17.92;16.33;;;;;;;3.49;100.00;98044.25;2033004;29;20679;-79
2020/12/25 00:05:45;;;;;;;16.20;15.10;;;;;;;3.47;100.00;98049.00;2032697;29;20638;-79
2020/12/25 00:06:46;;;;;;;17.38;15.88;;;;;;;3.48;100.00;98040.84;2024770;29;20232;-78
2020/12/25 00:07:48;;;;;;;17.73;16.33;;;;;;;3.44;100.00;98045.06;2025219;29;20228;-79
2020/12/25 00:08:49;;;;;;;17.05;15.65;;;;;;;3.40;100.00;98042.22;2032490;29;20231;-79
2020/12/25 00:09:50;;;;;;;16.63;15.33;;;;;;;3.43;100.00;98053.25;2032375;29;20306;-78
2020/12/25 00:10:52;;;;;;;17.15;15.70;;;;;;;3.34;100.00;98047.78;2032626;29;20603;-78
2020/12/25 00:11:53;;;;;;;16.48;15.25;;;;;;;3.32;100.00;98055.19;2031831;29;20235;-78
2020/12/25 00:12:54;;;;;;;16.63;15.23;;;;;;;3.31;100.00;98056.25;2024586;29;20244;-79
2020/12/25 00:13:55;;;;;;;16.27;14.90;;;;;;;3.35;100.00;98047.50;2032667;29;20235;-79
2020/12/25 00:14:56;;;;;;;16.58;15.18;;;;;;;3.29;100.00;98056.50;2032290;29;20310;-79
2020/12/25 00:15:57;;;;;;;16.85;15.50;;;;;;;3.27;100.00;98045.44;2032740;29;20242;-78
2020/12/25 00:16:59;;;;;;;16.10;14.73;;;;;;;3.39;100.00;98074.91;2032866;29;20306;-78
2020/12/25 00:17:59;;;;;;;16.15;14.75;;;;;;;3.35;100.00;98075.72;2032817;29;20227;-77
2020/12/25 00:19:01;;;;;;;16.23;14.80;;;;;;;3.34;100.00;98071.50;2032742;29;20230;-77
2020/12/25 00:20:02;;;;;;;15.30;14.07;;;;;;;3.27;100.00;98069.16;2032078;29;20231;-77
2020/12/25 00:21:03;;;;;;;16.48;15.13;;;;;;;3.21;100.00;98051.78;2033147;29;20224;-77
2020/12/25 00:22:04;;;;;;;16.35;14.85;;;;;;;3.34;100.00;98077.56;2032854;29;20230;-77
2020/12/25 00:23:06;;;;;;;16.70;15.20;;;;;;;3.35;100.00;98084.41;2032940;29;20728;-77
2020/12/25 00:24:08;;;;;;;15.73;14.32;;;;;;;3.33;100.00;98085.75;2031807;29;20279;-79
2020/12/25 00:25:09;;;;;;;16.10;14.80;;;;;;;3.25;100.00;98088.97;2024562;29;20283;-78
2020/12/25 00:26:10;;;;;;;16.02;14.77;;;;;;;3.20;100.00;98087.13;2032080;29;20231;-78
2020/12/25 00:27:11;;;;;;;17.13;15.73;;;;;;;3.31;100.00;98090.50;2033016;29;20239;-78
2020/12/25 00:28:12;;;;;;;16.33;14.82;;;;;;;3.32;100.00;98098.16;2033027;29;20237;-78
2020/12/25 00:29:13;;;;;;;17.30;15.60;;;;;;;3.31;100.00;98098.44;2032997;29;20583;-78
2020/12/25 00:30:14;;;;;;;17.48;15.88;;;;;;;3.33;100.00;98096.28;2032291;29;20231;-77
2020/12/25 00:31:26;;;;;;;17.80;16.00;;;;;;;3.22;100.00;98084.25;2032270;29;20239;-77
2020/12/25 00:32:26;;;;;;;17.40;15.95;;;;;;;3.30;100.00;98099.47;2031950;29;20310;-77
2020/12/25 00:33:28;;;;;;;17.23;15.83;;;;;;;3.32;100.00;98102.63;2032053;29;20317;-78
2020/12/25 00:34:28;;;;;;;18.60;17.00;;;;;;;3.25;100.00;98095.00;2031787;29;20231;-78
2020/12/25 00:35:31;;;;;;;18.43;16.83;;;;;;;3.22;100.00;98094.78;2024363;29;20248;-78
2020/12/25 00:36:33;;;;;;;17.88;16.27;;;;;;;3.27;100.00;98087.63;2032245;29;20231;-78
2020/12/25 00:37:34;;;;;;;17.02;15.63;;;;;;;3.32;100.00;98100.78;2032011;29;20600;-78
2020/12/25 00:38:36;;;;;;;17.00;15.52;;;;;;;3.34;100.00;98098.66;2032115;29;20230;-78
2020/12/25 00:39:39;;;;;;;16.63;15.10;;;;;;;3.34;100.00;98103.16;2031673;29;20326;-78
2020/12/25 00:40:43;;;;;;;17.92;16.23;;;;;;;3.23;100.00;98091.88;2033120;29;20231;-78
2020/12/25 00:41:45;;;;;;;18.13;16.42;;;;;;;3.34;100.00;98114.47;2032665;29;20278;-77
2020/12/25 00:42:46;;;;;;;17.55;15.90;;;;;;;3.28;100.00;98099.75;2032215;29;20278;-78
2020/12/25 00:43:47;;;;;;;18.37;16.70;;;;;;;3.22;100.00;98095.56;2032178;29;20279;-78
2020/12/25 00:44:48;;;;;;;18.23;16.52;;;;;;;3.32;100.00;98113.19;2032761;29;20227;-77
2020/12/25 00:45:50;;;;;;;17.70;16.17;;;;;;;3.27;100.00;98118.47;2032193;29;20254;-78
2020/12/25 00:46:50;;;;;;;17.60;15.98;;;;;;;3.25;100.00;98116.09;2031869;29;20238;-77
2020/12/25 00:47:56;;;;;;;18.52;16.90;;;;;;;3.27;100.00;98108.72;2030969;29;20250;-77
2020/12/25 00:48:56;;;;;;;20.45;16.98;;;;;;;3.25;100.00;98110.84;2024551;29;23096;-77
2020/12/25 00:49:59;;;;;;;18.20;16.50;;;;;;;3.20;100.00;98105.56;2024381;29;20280;-78
2020/12/25 00:51:00;;;;;;;17.25;15.75;;;;;;;3.19;100.00;98111.91;2032262;29;20230;-78
2020/12/25 00:52:01;;;;;;;17.10;15.50;;;;;;;3.29;100.00;98117.13;2031781;29;20255;-78
2020/12/25 00:53:04;;;;;;;16.55;15.05;;;;;;;3.18;100.00;98105.06;2032129;29;20499;-79
2020/12/25 00:54:06;;;;;;;17.13;15.73;;;;;;;3.31;100.00;98122.94;2031874;29;20224;-78
2020/12/25 00:55:29;;;;;;;17.45;15.85;;;;;;;3.18;100.00;98109.53;2026433;29;20263;-78
2020/12/25 00:56:31;;;;;;;15.73;14.32;;;;;;;3.20;100.00;98129.28;2024356;29;20250;-78
2020/12/25 00:57:32;;;;;;;17.23;15.63;;;;;;;3.22;100.00;98121.94;2031858;29;20591;-78
2020/12/25 00:58:41;;;;;;;16.30;14.80;;;;;;;3.20;100.00;98112.69;2031618;29;20228;-78
2020/12/25 00:59:43;;;;;;;15.52;14.13;;;;;;;3.18;100.00;98107.69;2024283;29;20223;-77
2020/12/25 01:00:44;;;;;;;16.97;15.37;;;;;;;3.05;100.00;98101.19;2031972;29;20223;-78
2020/12/25 01:01:44;;;;;;;15.23;13.93;;;;;;;3.08;100.00;98105.13;2032742;29;20223;-78
2020/12/25 01:02:46;;;;;;;16.17;14.70;;;;;;;3.12;100.00;98127.22;2032753;29;20302;-78
2020/12/25 01:03:47;;;;;;;16.00;14.60;;;;;;;3.15;100.00;98123.28;2032085;29;20230;-78
2020/12/25 01:04:48;;;;;;;16.35;14.85;;;;;;;3.12;100.00;98121.94;2024327;29;20232;-78
2020/12/25 01:05:49;;;;;;;15.00;13.80;;;;;;;3.14;100.00;98130.41;2032001;29;20698;-78
2020/12/25 01:06:50;;;;;;;15.10;13.90;;;;;;;3.12;100.00;98116.69;2032663;29;20614;-78
2020/12/25 01:07:51;;;;;;;16.13;14.75;;;;;;;3.12;100.00;98119.31;2032536;29;20234;-77
2020/12/25 01:08:52;;;;;;;15.47;14.27;;;;;;;2.94;100.00;98097.00;2032537;29;20232;-78
2020/12/25 01:09:54;;;;;;;15.30;14.00;;;;;;;3.13;100.00;98131.47;2031862;29;20286;-78
2020/12/25 01:10:55;;;;;;;15.32;14.02;;;;;;;3.13;100.00;98134.09;2032114;29;20259;-78
2020/12/25 01:11:58;;;;;;;16.17;14.57;;;;;;;3.13;100.00;98126.19;2031752;29;20224;-78
2020/12/25 01:12:59;;;;;;;15.05;13.75;;;;;;;3.14;100.00;98126.97;2031881;29;20714;-78
2020/12/25 01:14:00;;;;;;;15.07;13.73;;;;;;;3.15;100.00;98129.34;2024875;29;20568;-77
2020/12/25 01:15:01;;;;;;;15.53;14.13;;;;;;;3.15;100.00;98121.44;2031924;29;20330;-78
2020/12/25 01:16:02;;;;;;;15.40;14.00;;;;;;;3.18;100.00;98126.16;2032843;29;20219;-78
2020/12/25 01:17:03;;;;;;;15.77;14.43;;;;;;;3.15;100.00;98121.44;2032531;29;20596;-78
2020/12/25 01:18:04;;;;;;;16.10;14.60;;;;;;;3.06;100.00;98120.41;2032534;29;20227;-78
2020/12/25 01:19:05;;;;;;;16.97;15.30;;;;;;;3.14;100.00;98130.41;2032326;29;20258;-77
2020/12/25 01:20:06;;;;;;;15.15;13.93;;;;;;;3.05;100.00;98110.94;2031816;29;20225;-79
2020/12/25 01:21:07;;;;;;;16.83;15.33;;;;;;;3.16;100.00;98130.91;2031284;29;20745;-79
2020/12/25 01:22:08;;;;;;;16.90;15.20;;;;;;;3.15;100.00;98118.00;2032051;29;20290;-78
2020/12/25 01:23:09;;;;;;;16.93;15.43;;;;;;;3.22;100.00;98129.84;2031939;29;20235;-78
2020/12/25 01:24:10;;;;;;;15.40;13.98;;;;;;;3.21;100.00;98151.94;2031991;29;20232;-78
2020/12/25 01:25:14;;;;;;;16.20;14.67;;;;;;;3.21;100.00;98132.72;2032688;29;20235;-78
2020/12/25 01:26:15;;;;;;;16.67;15.18;;;;;;;3.23;100.00;98126.13;2032595;29;20223;-78
2020/12/25 01:27:16;;;;;;;15.70;14.20;;;;;;;3.15;100.00;98134.59;2032839;29;20278;-78
2020/12/25 01:28:17;;;;;;;16.10;14.70;;;;;;;3.12;100.00;98129.84;2032570;29;20246;-78
2020/12/25 01:29:18;;;;;;;16.17;14.83;;;;;;;3.15;100.00;98129.34;2032665;29;20247;-77
2020/12/25 01:30:19;;;;;;;16.67;15.18;;;;;;;3.21;100.00;98149.31;2031717;29;20227;-78
2020/12/25 01:31:20;;;;;;;16.87;15.27;;;;;;;3.19;100.00;98143.53;2031884;29;20231;-78
2020/12/25 01:32:21;;;;;;;16.60;14.88;;;;;;;3.17;100.00;98129.84;2032886;29;20233;-78
2020/12/25 01:33:22;;;;;;;15.43;14.13;;;;;;;3.20;100.00;98145.09;2031821;29;20229;-78
2020/12/25 01:34:22;;;;;;;16.33;14.90;;;;;;;3.22;100.00;98137.75;2031144;29;20261;-78
2020/12/25 01:35:24;;;;;;;17.10;15.33;;;;;;;3.24;100.00;98138.25;2032792;29;20367;-78
2020/12/25 01:36:24;;;;;;;15.63;14.13;;;;;;;3.24;100.00;98145.38;2031916;29;20714;-78
2020/12/25 01:37:26;;;;;;;16.63;15.10;;;;;;;3.17;100.00;98132.47;2031918;29;20674;-78
2020/12/25 01:38:27;;;;;;;16.92;15.32;;;;;;;3.14;100.00;98135.66;2032330;29;20231;-78
2020/12/25 01:39:28;;;;;;;16.67;15.18;;;;;;;3.16;100.00;98143.28;2031575;29;20263;-78
2020/12/25 01:40:30;;;;;;;16.50;15.00;;;;;;;3.00;100.00;98118.84;2032024;29;20695;-78
2020/12/25 01:41:31;;;;;;;17.50;15.90;;;;;;;3.15;100.00;98145.16;2032515;29;20227;-78
2020/12/25 01:42:33;;;;;;;17.83;15.98;;;;;;;3.02;100.00;98137.81;2032931;29;20697;-78
2020/12/25 01:43:34;;;;;;;16.40;14.75;;;;;;;3.10;100.00;98161.75;2031671;29;20215;-79
2020/12/25 01:44:35;;;;;;;16.67;14.98;;;;;;;3.02;100.00;98135.16;2031774;29;20288;-78
2020/12/25 01:45:36;;;;;;;16.40;14.77;;;;;;;3.00;100.00;98132.81;2032128;29;20247;-78
2020/12/25 01:46:38;;;;;;;17.65;15.95;;;;;;;3.14;100.00;98140.94;2023436;29;20266;-78
2020/12/25 01:47:39;;;;;;;16.88;15.38;;;;;;;3.19;100.00;98148.03;2032165;29;20239;-78
2020/12/25 01:48:41;;;;;;;17.80;16.00;;;;;;;3.07;100.00;98141.22;2032484;29;20238;-78
2020/12/25 01:49:42;;;;;;;17.92;16.23;;;;;;;3.08;100.00;98153.34;2031602;29;20231;-78
2020/12/25 01:50:43;;;;;;;16.10;14.70;;;;;;;3.08;100.00;98147.28;2031993;29;20242;-78
2020/12/25 01:51:45;;;;;;;17.03;15.27;;;;;;;3.08;100.00;98153.34;2023859;29;20315;-78
2020/12/25 01:52:47;;;;;;;18.50;16.55;;;;;;;3.14;100.00;98143.56;2031570;29;20239;-78
2020/12/25 01:53:48;;;;;;;17.48;15.93;;;;;;;3.14;100.00;98151.47;2032463;29;20231;-78
2020/12/25 01:54:49;;;;;;;17.77;16.08;;;;;;;3.03;100.00;98134.91;2032306;29;20232;-78
2020/12/25 01:55:52;;;;;;;18.10;16.17;;;;;;;3.10;100.00;98145.16;2032206;29;20323;-78
2020/12/25 01:56:53;;;;;;;16.85;15.18;;;;;;;2.95;100.00;98132.81;2032039;29;20713;-78
2020/12/25 01:57:55;;;;;;;18.30;16.50;;;;;;;3.05;100.00;98147.81;2031532;29;20679;-78
2020/12/25 01:58:56;;;;;;;16.95;15.35;;;;;;;3.07;100.00;98154.41;2031197;29;20475;-78
2020/12/25 01:59:57;;;;;;;18.10;15.73;;;;;;;3.10;100.00;98163.59;2031773;29;20272;-78
2020/12/25 02:00:58;;;;;;;17.63;15.93;;;;;;;2.96;100.00;98141.53;2032345;29;20227;-78
2020/12/25 02:02:00;;;;;;;19.20;17.13;;;;;;;3.07;100.00;98150.97;2032404;29;20243;-78
2020/12/25 02:03:00;;;;;;;17.55;15.88;;;;;;;3.12;100.00;98158.84;2032271;29;20451;-78
2020/12/25 02:04:02;;;;;;;17.43;15.73;;;;;;;3.06;100.00;98149.41;2032444;29;20226;-78
2020/12/25 02:05:03;;;;;;;18.33;16.20;;;;;;;3.15;100.00;98153.06;2032391;29;20698;-78
2020/12/25 02:06:04;;;;;;;17.80;16.17;;;;;;;3.10;100.00;98148.56;2031741;29;20591;-78
2020/12/25 02:07:04;;;;;;;18.80;16.80;;;;;;;3.18;100.00;98163.03;2031696;29;20232;-77
2020/12/25 02:08:06;;;;;;;18.67;16.83;;;;;;;2.97;100.00;98138.63;2023918;29;20304;-77
2020/12/25 02:09:07;;;;;;;19.13;17.15;;;;;;;3.11;100.00;98165.19;2023632;29;20284;-78
2020/12/25 02:10:09;;;;;;;18.67;16.77;;;;;;;3.13;100.00;98171.00;2023718;29;20239;-78
2020/12/25 02:11:10;;;;;;;18.40;16.50;;;;;;;3.05;100.00;98159.16;2031702;29;20239;-78
2020/12/25 02:12:12;;;;;;;17.85;16.13;;;;;;;2.98;100.00;98155.22;2031491;29;20242;-78
2020/12/25 02:13:13;;;;;;;19.27;17.30;;;;;;;3.00;100.00;98164.44;2031498;29;20578;-78
2020/12/25 02:14:14;;;;;;;18.13;16.07;;;;;;;3.02;100.00;98166.78;2031717;29;20375;-77
2020/12/25 02:15:15;;;;;;;17.35;15.63;;;;;;;2.90;100.00;98156.56;2032372;29;20224;-79
2020/12/25 02:16:16;;;;;;;17.77;16.17;;;;;;;2.98;100.00;98161.28;2031615;29;20227;-78
2020/12/25 02:17:17;;;;;;;19.37;17.37;;;;;;;2.97;100.00;98166.81;2031845;29;20219;-78
2020/12/25 02:18:18;;;;;;;18.65;16.75;;;;;;;2.99;100.00;98172.59;2032336;29;20583;-78
2020/12/25 02:19:19;;;;;;;17.40;15.63;;;;;;;3.08;100.00;98184.97;2032242;29;20227;-78
2020/12/25 02:20:20;;;;;;;18.92;16.98;;;;;;;3.04;100.00;98168.13;2031362;29;20227;-77
2020/12/25 02:21:22;;;;;;;18.47;16.70;;;;;;;3.05;100.00;98180.22;2023891;29;20231;-78
2020/12/25 02:22:23;;;;;;;19.17;17.17;;;;;;;2.98;100.00;98171.81;2031000;29;20235;-78
2020/12/25 02:23:24;;;;;;;18.17;16.37;;;;;;;3.08;100.00;98181.53;2031993;29;20290;-79
2020/12/25 02:24:25;;;;;;;19.95;18.15;;;;;;;3.05;100.00;98187.34;2031575;29;20250;-79
2020/12/25 02:25:26;;;;;;;21.20;19.03;;;;;;;2.99;100.00;98181.28;2031569;29;20314;-78
2020/12/25 02:26:27;;;;;;;20.80;18.63;;;;;;;2.94;100.00;98173.41;2032052;29;20239;-78
2020/12/25 02:27:28;;;;;;;20.73;18.63;;;;;;;2.91;100.00;98183.69;2032187;29;20275;-78
2020/12/25 02:28:29;;;;;;;21.05;19.05;;;;;;;2.90;100.00;98182.13;2032145;29;20231;-79
2020/12/25 02:29:30;;;;;;;21.07;18.97;;;;;;;2.89;100.00;98178.69;2031349;29;20237;-79
2020/12/25 02:30:31;;;;;;;21.50;19.02;;;;;;;2.93;100.00;98187.63;2032068;29;20239;-79
2020/12/25 02:31:32;;;;;;;21.47;19.47;;;;;;;2.88;100.00;98178.97;2031568;29;20220;-78
2020/12/25 02:32:33;;;;;;;22.33;19.90;;;;;;;2.81;100.00;98177.38;2031959;29;20235;-77
2020/12/25 02:33:34;;;;;;;22.33;20.03;;;;;;;2.91;100.00;98186.31;2031572;29;20247;-78
2020/12/25 02:34:35;;;;;;;21.48;19.27;;;;;;;2.95;100.00;98192.63;2031582;29;20475;-79
2020/12/25 02:35:36;;;;;;;20.63;18.57;;;;;;;2.92;100.00;98185.25;2031958;29;20745;-80
2020/12/25 02:36:38;;;;;;;22.58;20.27;;;;;;;2.89;100.00;98191.06;2032039;29;20234;-80
2020/12/25 02:37:39;;;;;;;21.42;19.08;;;;;;;2.98;100.00;98185.00;2032527;29;20250;-80
2020/12/25 02:38:40;;;;;;;22.75;20.45;;;;;;;2.82;100.00;98176.31;2031634;29;20245;-80
2020/12/25 02:39:41;;;;;;;21.37;19.27;;;;;;;2.89;100.00;98188.44;2031527;29;20286;-80
2020/12/25 02:40:42;;;;;;;21.85;19.63;;;;;;;2.90;100.00;98192.66;2032638;29;20596;-80
2020/12/25 02:41:43;;;;;;;21.80;19.70;;;;;;;2.79;100.00;98181.34;2031236;29;20231;-80
2020/12/25 02:42:44;;;;;;;22.85;20.55;;;;;;;2.76;100.00;98187.91;2031747;29;20586;-80
2020/12/25 02:43:46;;;;;;;25.58;20.02;;;;;;;2.79;100.00;98190.03;2032342;29;20302;-80
2020/12/25 02:44:46;;;;;;;22.40;20.10;;;;;;;2.67;100.00;98167.66;2031418;29;20318;-80
2020/12/25 02:45:48;;;;;;;23.10;19.37;;;;;;;2.77;100.00;98184.22;2032087;29;20215;-80
2020/12/25 02:46:48;;;;;;;22.38;20.13;;;;;;;2.77;100.00;98181.59;2032392;29;20224;-81
2020/12/25 02:47:50;;;;;;;23.27;20.97;;;;;;;2.78;100.00;98182.38;2031414;29;20242;-80
2020/12/25 02:48:50;;;;;;;21.98;19.88;;;;;;;2.75;100.00;98196.88;2024279;29;20274;-80
2020/12/25 02:49:51;;;;;;;23.67;21.20;;;;;;;2.74;100.00;98184.78;2023454;29;20336;-80
2020/12/25 02:50:52;;;;;;;23.73;21.08;;;;;;;2.62;100.00;98179.00;2023538;29;20291;-80
2020/12/25 02:51:54;;;;;;;22.00;19.83;;;;;;;2.73;100.00;98193.72;2023417;29;20235;-80
2020/12/25 02:52:55;;;;;;;22.48;20.27;;;;;;;2.68;100.00;98188.47;2031935;29;20235;-80
2020/12/25 02:53:56;;;;;;;24.33;20.17;;;;;;;2.57;100.00;98170.31;2032106;29;20232;-80
2020/12/25 02:54:57;;;;;;;22.83;20.45;;;;;;;2.69;100.00;98187.41;2032187;29;20231;-80
2020/12/25 02:55:58;;;;;;;22.67;19.90;;;;;;;2.75;100.00;98188.19;2032323;29;20742;-80
2020/12/25 02:56:59;;;;;;;24.92;20.15;;;;;;;2.71;100.00;98190.59;2031376;29;20250;-80
2020/12/25 02:58:00;;;;;;;24.07;21.03;;;;;;;2.60;100.00;98167.94;2031442;29;20227;-80
2020/12/25 02:59:01;;;;;;;24.77;21.55;;;;;;;2.73;100.00;98182.41;2024263;29;20236;-80
2020/12/25 03:00:04;;;;;;;26.30;21.40;;;;;;;2.75;100.00;98186.34;2031603;29;20223;-80
2020/12/25 03:01:05;;;;;;;22.63;20.38;;;;;;;2.60;100.00;98162.66;2032332;29;20282;-80
2020/12/25 03:02:06;;;;;;;22.73;19.73;;;;;;;2.72;100.00;98183.47;2031136;29;20219;-80
2020/12/25 03:03:07;;;;;;;23.70;21.20;;;;;;;2.72;100.00;98183.47;2023218;29;20228;-80
2020/12/25 03:04:08;;;;;;;23.13;20.63;;;;;;;2.77;100.00;98188.72;2031276;29;20227;-80
2020/12/25 03:05:09;;;;;;;23.95;21.30;;;;;;;2.78;100.00;98185.00;2032191;29;20227;-79
2020/12/25 03:06:10;;;;;;;22.10;19.73;;;;;;;2.79;100.00;98187.41;2032213;29;20287;-79
2020/12/25 03:07:12;;;;;;;23.27;20.73;;;;;;;2.80;100.00;98181.09;2032138;29;20223;-80
2020/12/25 03:08:13;;;;;;;23.13;20.83;;;;;;;2.84;100.00;98195.28;2032014;29;20638;-79
2020/12/25 03:09:13;;;;;;;21.90;19.70;;;;;;;2.84;100.00;98194.50;2032011;29;20227;-79
2020/12/25 03:10:15;;;;;;;23.37;21.03;;;;;;;2.78;100.00;98191.09;2031290;29;20270;-80
2020/12/25 03:11:15;;;;;;;23.30;20.80;;;;;;;2.77;100.00;98188.72;2032352;29;20235;-79
2020/12/25 03:12:17;;;;;;;22.53;20.13;;;;;;;2.73;100.00;98187.69;2033561;29;20231;-79
2020/12/25 03:13:17;;;;;;;21.67;19.42;;;;;;;2.66;100.00;98180.03;2033558;29;20634;-80
2020/12/25 03:14:18;;;;;;;24.13;21.40;;;;;;;2.75;100.00;98188.97;2032807;29;20215;-79
2020/12/25 03:15:19;;;;;;;23.95;21.40;;;;;;;2.78;100.00;98203.44;2032841;29;20231;-79
2020/12/25 03:16:20;;;;;;;23.27;20.80;;;;;;;2.70;100.00;98186.38;2032633;29;20648;-79
2020/12/25 03:17:21;;;;;;;24.75;20.60;;;;;;;2.76;100.00;98203.72;2032683;29;20228;-79
2020/12/25 03:18:22;;;;;;;22.47;20.27;;;;;;;2.76;100.00;98202.94;2032356;29;20247;-79
2020/12/25 03:19:23;;;;;;;26.55;19.90;;;;;;;2.82;100.00;98204.53;2033009;29;20238;-79
2020/12/25 03:20:24;;;;;;;23.33;21.03;;;;;;;2.76;100.00;98213.47;2033625;29;20238;-78
2020/12/25 03:21:25;;;;;;;22.67;19.67;;;;;;;2.77;100.00;98209.78;2033455;29;20647;-78
2020/12/25 03:22:27;;;;;;;23.60;21.10;;;;;;;2.76;100.00;98209.00;2033099;29;20232;-78
2020/12/25 03:23:28;;;;;;;22.65;20.15;;;;;;;2.76;100.00;98198.47;2032926;29;20706;-78
2020/12/25 03:24:29;;;;;;;24.87;22.13;;;;;;;2.89;100.00;98212.16;2033571;29;20560;-78
2020/12/25 03:25:30;;;;;;;24.27;21.67;;;;;;;2.87;100.00;98214.25;2032387;29;20235;-77
2020/12/25 03:26:31;;;;;;;23.27;20.87;;;;;;;2.87;100.00;98214.25;2032686;29;20227;-77
2020/12/25 03:27:32;;;;;;;21.95;19.67;;;;;;;2.88;100.00;98224.53;2033482;29;20463;-78
2020/12/25 03:28:33;;;;;;;23.77;21.23;;;;;;;2.88;100.00;98227.16;2032792;29;20223;-78
2020/12/25 03:29:34;;;;;;;22.77;20.35;;;;;;;2.85;100.00;98227.69;2032731;29;20250;-78
2020/12/25 03:30:35;;;;;;;23.80;20.20;;;;;;;2.86;100.00;98233.75;2032893;29;20259;-78
2020/12/25 03:31:36;;;;;;;22.73;20.50;;;;;;;2.84;100.00;98221.63;2032559;29;20234;-79
2020/12/25 03:32:37;;;;;;;21.83;19.47;;;;;;;2.87;100.00;98227.41;2032152;29;20227;-79
2020/12/25 03:33:38;;;;;;;22.42;20.30;;;;;;;2.91;100.00;98220.56;2032569;29;20234;-78
2020/12/25 03:34:39;;;;;;;20.43;18.37;;;;;;;2.95;100.00;98224.25;2033676;29;20231;-78
2020/12/25 03:35:40;;;;;;;21.48;19.33;;;;;;;3.01;100.00;98220.53;2033540;29;20219;-78
2020/12/25 03:36:41;;;;;;;20.93;19.00;;;;;;;2.89;100.00;98214.78;2033511;29;20286;-78
2020/12/25 03:37:43;;;;;;;19.85;18.05;;;;;;;3.00;100.00;98224.25;2032646;29;20231;-78
2020/12/25 03:38:44;;;;;;;22.23;17.85;;;;;;;3.07;100.00;98230.81;2032505;29;20235;-78
2020/12/25 03:39:46;;;;;;;19.80;17.98;;;;;;;3.12;100.00;98227.38;2032562;29;20223;-78
2020/12/25 03:40:47;;;;;;;18.42;16.67;;;;;;;3.18;100.00;98225.50;2024903;29;20224;-78
2020/12/25 03:41:48;;;;;;;20.23;18.20;;;;;;;3.07;100.00;98219.47;2024834;29;20224;-78
2020/12/25 03:42:49;;;;;;;17.90;16.20;;;;;;;3.15;100.00;98231.31;2032747;29;20219;-78
2020/12/25 03:43:50;;;;;;;17.17;15.48;;;;;;;3.07;100.00;98230.81;2032713;29;20638;-78
2020/12/25 03:44:54;;;;;;;18.60;17.00;;;;;;;3.07;100.00;98233.44;2032674;29;20243;-78
2020/12/25 03:45:56;;;;;;;17.65;16.05;;;;;;;3.11;100.00;98236.31;2032176;29;20707;-78
2020/12/25 03:46:57;;;;;;;17.37;15.67;;;;;;;3.13;100.00;98234.25;2024750;29;20232;-78
2020/12/25 03:48:00;;;;;;;16.67;15.23;;;;;;;3.11;100.00;98236.31;2032459;29;20230;-78
2020/12/25 03:49:02;;;;;;;17.15;15.68;;;;;;;3.10;100.00;98232.91;2033329;29;20257;-78
2020/12/25 03:50:03;;;;;;;15.45;14.25;;;;;;;3.11;100.00;98231.84;2033126;29;20231;-78
2020/12/25 03:51:05;;;;;;;15.50;14.20;;;;;;;3.20;100.00;98242.63;2032625;29;20302;-78
2020/12/25 03:52:05;;;;;;;16.67;15.27;;;;;;;3.11;100.00;98231.06;2032409;29;20578;-78
2020/12/25 03:53:08;;;;;;;16.40;15.10;;;;;;;3.20;100.00;98239.22;2032471;29;20246;-78
2020/12/25 03:54:08;;;;;;;15.35;14.05;;;;;;;3.18;100.00;98241.31;2032065;29;20327;-78
2020/12/25 03:55:09;;;;;;;14.83;13.63;;;;;;;3.19;100.00;98246.31;2033306;29;20231;-78
2020/12/25 03:56:10;;;;;;;15.30;14.10;;;;;;;3.07;100.00;98225.53;2032499;29;20238;-78
2020/12/25 03:57:11;;;;;;;15.67;14.47;;;;;;;3.22;100.00;98247.66;2032488;29;20258;-79
2020/12/25 03:58:12;;;;;;;15.55;14.35;;;;;;;3.02;100.00;98220.28;2033280;29;20258;-79
2020/12/25 03:59:13;;;;;;;15.07;13.50;;;;;;;3.20;100.00;98247.91;2033344;29;20223;-78
2020/12/25 04:00:14;;;;;;;15.35;14.10;;;;;;;3.20;100.00;98247.91;2033304;29;20366;-78
2020/12/25 04:01:16;;;;;;;15.20;13.90;;;;;;;3.15;100.00;98236.59;2033344;29;20224;-78
2020/12/25 04:02:16;;;;;;;15.45;14.25;;;;;;;3.28;100.00;98262.38;2033165;29;20585;-78
2020/12/25 04:03:17;;;;;;;15.73;14.53;;;;;;;3.14;100.00;98243.72;2033209;29;20335;-78
2020/12/25 04:04:19;;;;;;;15.10;13.90;;;;;;;3.20;100.00;98261.06;2032344;29;20219;-78
2020/12/25 04:05:20;;;;;;;14.57;13.48;;;;;;;3.10;100.00;98247.94;2032643;29;20219;-78
2020/12/25 04:06:21;;;;;;;14.90;13.80;;;;;;;3.26;100.00;98260.03;2032484;29;20310;-78
2020/12/25 04:07:21;;;;;;;14.55;13.35;;;;;;;3.22;100.00;98258.19;2023297;29;20276;-78
2020/12/25 04:08:23;;;;;;;14.30;13.20;;;;;;;3.17;100.00;98251.06;2024537;29;20274;-78
2020/12/25 04:09:24;;;;;;;14.80;13.60;;;;;;;3.18;100.00;98267.69;2024717;29;20601;-77
2020/12/25 04:10:25;;;;;;;14.97;13.80;;;;;;;3.23;100.00;98271.09;2032603;29;20227;-78
2020/12/25 04:11:26;;;;;;;13.60;12.60;;;;;;;3.20;100.00;98271.63;2024537;29;20573;-78
2020/12/25 04:12:27;;;;;;;14.60;13.50;;;;;;;3.24;100.00;98264.78;2024988;29;20258;-78
2020/12/25 04:13:28;;;;;;;14.48;13.30;;;;;;;3.18;100.00;98254.50;2032291;29;20718;-77
2020/12/25 04:14:30;;;;;;;14.50;13.47;;;;;;;3.24;100.00;98270.03;2032443;29;20231;-77
2020/12/25 04:15:31;;;;;;;14.82;13.60;;;;;;;3.22;100.00;98263.47;2033053;29;20235;-78
2020/12/25 04:16:32;;;;;;;14.50;13.40;;;;;;;3.22;100.00;98266.91;2024524;29;20307;-79
2020/12/25 04:17:33;;;;;;;15.68;14.05;;;;;;;3.09;100.00;98252.41;2032296;29;20730;-78
2020/12/25 04:18:34;;;;;;;15.00;13.80;;;;;;;3.14;100.00;98266.66;2032320;29;20699;-78
2020/12/25 04:19:35;;;;;;;15.20;13.90;;;;;;;3.09;100.00;98259.53;2032307;29;20306;-79
2020/12/25 04:20:36;;;;;;;14.77;13.57;;;;;;;3.08;100.00;98263.22;2032353;29;20220;-80
2020/12/25 04:21:38;;;;;;;13.68;12.68;;;;;;;3.11;100.00;98257.41;2024001;29;20228;-79
2020/12/25 04:22:39;;;;;;;14.15;13.15;;;;;;;3.10;100.00;98274.28;2031263;29;20666;-79
2020/12/25 04:23:41;;;;;;;14.20;13.20;;;;;;;3.18;100.00;98271.09;2032951;29;20586;-78
2020/12/25 04:24:43;;;;;;;13.27;12.32;;;;;;;3.11;100.00;98279.28;2032268;29;20255;-78
2020/12/25 04:25:44;;;;;;;13.93;12.93;;;;;;;3.11;100.00;98279.28;2032255;29;20769;-79
2020/12/25 04:26:46;;;;;;;15.33;14.13;;;;;;;3.03;100.00;98271.91;2032100;29;20612;-79
2020/12/25 04:27:47;;;;;;;14.77;13.63;;;;;;;3.02;100.00;98272.19;2032086;29;20231;-78
2020/12/25 04:28:48;;;;;;;14.20;13.00;;;;;;;3.09;100.00;98281.41;2032262;29;20229;-79
2020/12/25 04:29:49;;;;;;;14.63;13.45;;;;;;;3.05;100.00;98284.84;2032770;29;20239;-78
2020/12/25 04:30:50;;;;;;;14.30;13.30;;;;;;;3.02;100.00;98288.00;2033341;29;20243;-79
2020/12/25 04:31:51;;;;;;;14.82;13.70;;;;;;;2.96;100.00;98276.69;2032919;29;20223;-78
2020/12/25 04:32:52;;;;;;;14.40;13.27;;;;;;;3.02;100.00;98290.63;2031822;29;20228;-78
2020/12/25 04:33:53;;;;;;;14.10;13.00;;;;;;;3.09;100.00;98291.16;2032396;29;20231;-79
2020/12/25 04:34:55;;;;;;;14.65;13.55;;;;;;;2.98;100.00;98281.69;2032371;29;20235;-78
2020/12/25 04:35:55;;;;;;;14.65;13.40;;;;;;;3.00;100.00;98279.56;2024614;29;20240;-78
2020/12/25 04:36:57;;;;;;;13.60;12.60;;;;;;;3.02;100.00;98290.63;2032231;29;20238;-78
2020/12/25 04:37:58;;;;;;;13.90;12.90;;;;;;;2.97;100.00;98294.06;2032074;29;20231;-77
2020/12/25 04:39:00;;;;;;;13.57;12.57;;;;;;;2.96;100.00;98294.34;2032715;29;20234;-78
2020/12/25 04:40:03;;;;;;;14.40;13.10;;;;;;;2.92;100.00;98280.09;2031985;29;20215;-78
2020/12/25 04:41:07;;;;;;;13.10;12.18;;;;;;;3.10;100.00;98304.06;2032596;29;20246;-79
2020/12/25 04:42:08;;;;;;;14.60;13.40;;;;;;;3.17;100.00;98306.44;2032300;29;20242;-78